<?xml version="1.0" encoding="UTF-8" standalone="no" ?>
<gpx xmlns="http://www.topografix.com/GPX/1/1" xmlns:xsi="http://www.w3.org/2001/XMLSchema-instance" xsi:schemaLocation="http://www.topografix.com/GPX/1/1 http://www.topografix.com/GPX/1/1/gpx.xsd" version="1.1" creator="VisuGPX - https://www.visugpx.com">
  <metadata>
    <name>Bocage et marais de l'ancien Golfe des Santons</name>
  </metadata>
  <wpt lat="45.79606" lon="-0.95912">
    <ele>7</ele>
    <name><![CDATA[Parking du cimetière]]></name>
  </wpt>
  <wpt lat="45.80078" lon="-0.95144">
    <ele>29</ele>
    <name><![CDATA[Carrefour central de la Gripperie]]></name>
  </wpt>
  <wpt lat="45.80067" lon="-0.95111">
    <ele>29</ele>
    <name><![CDATA[Carrefour central de la Gripperie]]></name>
  </wpt>
  <wpt lat="45.8005" lon="-0.94738">
    <ele>25</ele>
    <name><![CDATA[Entrée du chemin en sortie du village]]></name>
  </wpt>
  <wpt lat="45.80623" lon="-0.94717">
    <ele>24</ele>
    <name><![CDATA[La Barlerie]]></name>
  </wpt>
  <wpt lat="45.81676" lon="-0.9436">
    <ele>20</ele>
    <name><![CDATA[Les Baconnières]]></name>
  </wpt>
  <wpt lat="45.81891" lon="-0.94715">
    <ele>25</ele>
    <name><![CDATA[Rue Maurice Ponte]]></name>
  </wpt>
  <wpt lat="45.82643" lon="-0.94332">
    <ele>15</ele>
    <name><![CDATA[Route D733E2]]></name>
  </wpt>
  <wpt lat="45.82066" lon="-0.95628">
    <ele>29</ele>
    <name><![CDATA[Route D18]]></name>
  </wpt>
  <wpt lat="45.80281" lon="-0.95488">
    <ele>29</ele>
    <name><![CDATA[Petite route à l'ouest de la Gripperie]]></name>
  </wpt>
  <wpt lat="45.79642" lon="-0.95891">
    <ele>7</ele>
    <name><![CDATA[St Symphorien (bis)]]></name>
  </wpt>
  <wpt lat="45.79213" lon="-0.95866">
    <ele>25</ele>
    <name><![CDATA[L'Ornut]]></name>
  </wpt>
  <wpt lat="45.78869" lon="-0.95574">
    <ele>26</ele>
    <name><![CDATA[La Châtaigneraie]]></name>
  </wpt>
  <wpt lat="45.79598" lon="-0.95917">
    <ele>7</ele>
    <name><![CDATA[Parking du cimetière]]></name>
  </wpt>
  <trk>
    <name><![CDATA[Bocage et marais de l'ancien Golfe des Santons]]></name>
    <trkseg>
      <trkpt lat="45.79606" lon="-0.95912">
        <ele>7</ele>
        <time>2021-09-16T18:01:59+02:00</time>
      </trkpt>
      <trkpt lat="45.79642" lon="-0.95886">
        <ele>8</ele>
        <time>2021-09-16T18:02:04+02:00</time>
      </trkpt>
      <trkpt lat="45.79654" lon="-0.9577">
        <ele>19</ele>
        <time>2021-09-16T18:02:09+02:00</time>
      </trkpt>
      <trkpt lat="45.79675" lon="-0.95675">
        <ele>21</ele>
        <time>2021-09-16T18:02:14+02:00</time>
      </trkpt>
      <trkpt lat="45.7966" lon="-0.95544">
        <ele>25</ele>
        <time>2021-09-16T18:02:19+02:00</time>
      </trkpt>
      <trkpt lat="45.79671" lon="-0.9549">
        <ele>26</ele>
        <time>2021-09-16T18:02:24+02:00</time>
      </trkpt>
      <trkpt lat="45.79738" lon="-0.95393">
        <ele>29</ele>
        <time>2021-09-16T18:02:29+02:00</time>
      </trkpt>
      <trkpt lat="45.79787" lon="-0.95365">
        <ele>30</ele>
        <time>2021-09-16T18:02:34+02:00</time>
      </trkpt>
      <trkpt lat="45.79872" lon="-0.95336">
        <ele>30</ele>
        <time>2021-09-16T18:02:39+02:00</time>
      </trkpt>
      <trkpt lat="45.79929" lon="-0.95303">
        <ele>30</ele>
        <time>2021-09-16T18:02:44+02:00</time>
      </trkpt>
      <trkpt lat="45.79998" lon="-0.95242">
        <ele>30</ele>
        <time>2021-09-16T18:02:49+02:00</time>
      </trkpt>
      <trkpt lat="45.80056" lon="-0.95231">
        <ele>29</ele>
        <time>2021-09-16T18:02:54+02:00</time>
      </trkpt>
      <trkpt lat="45.80097" lon="-0.95164">
        <ele>29</ele>
        <time>2021-09-16T18:02:59+02:00</time>
      </trkpt>
      <trkpt lat="45.80078" lon="-0.95144">
        <ele>29</ele>
        <time>2021-09-16T18:03:04+02:00</time>
      </trkpt>
      <trkpt lat="45.80067" lon="-0.95111">
        <ele>29</ele>
        <time>2021-09-16T18:03:09+02:00</time>
      </trkpt>
      <trkpt lat="45.80036" lon="-0.95055">
        <ele>29</ele>
        <time>2021-09-16T18:03:14+02:00</time>
      </trkpt>
      <trkpt lat="45.79989" lon="-0.94951">
        <ele>27</ele>
        <time>2021-09-16T18:03:19+02:00</time>
      </trkpt>
      <trkpt lat="45.79975" lon="-0.94871">
        <ele>25</ele>
        <time>2021-09-16T18:03:24+02:00</time>
      </trkpt>
      <trkpt lat="45.79986" lon="-0.94809">
        <ele>24</ele>
        <time>2021-09-16T18:03:29+02:00</time>
      </trkpt>
      <trkpt lat="45.8001" lon="-0.94771">
        <ele>24</ele>
        <time>2021-09-16T18:03:34+02:00</time>
      </trkpt>
      <trkpt lat="45.8005" lon="-0.94738">
        <ele>25</ele>
        <time>2021-09-16T18:03:39+02:00</time>
      </trkpt>
      <trkpt lat="45.80156" lon="-0.9464">
        <ele>25</ele>
        <time>2021-09-16T18:03:44+02:00</time>
      </trkpt>
      <trkpt lat="45.80168" lon="-0.94577">
        <ele>27</ele>
        <time>2021-09-16T18:03:49+02:00</time>
      </trkpt>
      <trkpt lat="45.80278" lon="-0.94543">
        <ele>27</ele>
        <time>2021-09-16T18:03:54+02:00</time>
      </trkpt>
      <trkpt lat="45.80399" lon="-0.94513">
        <ele>26</ele>
        <time>2021-09-16T18:03:59+02:00</time>
      </trkpt>
      <trkpt lat="45.80444" lon="-0.9453">
        <ele>25</ele>
        <time>2021-09-16T18:04:04+02:00</time>
      </trkpt>
      <trkpt lat="45.80468" lon="-0.94556">
        <ele>24</ele>
        <time>2021-09-16T18:04:09+02:00</time>
      </trkpt>
      <trkpt lat="45.8058" lon="-0.94499">
        <ele>24</ele>
        <time>2021-09-16T18:04:14+02:00</time>
      </trkpt>
      <trkpt lat="45.80623" lon="-0.94717">
        <ele>24</ele>
        <time>2021-09-16T18:04:19+02:00</time>
      </trkpt>
      <trkpt lat="45.80656" lon="-0.94698">
        <ele>24</ele>
        <time>2021-09-16T18:04:24+02:00</time>
      </trkpt>
      <trkpt lat="45.80656" lon="-0.9465">
        <ele>23</ele>
        <time>2021-09-16T18:04:29+02:00</time>
      </trkpt>
      <trkpt lat="45.80862" lon="-0.94579">
        <ele>21</ele>
        <time>2021-09-16T18:04:34+02:00</time>
      </trkpt>
      <trkpt lat="45.80967" lon="-0.94569">
        <ele>22</ele>
        <time>2021-09-16T18:04:39+02:00</time>
      </trkpt>
      <trkpt lat="45.81013" lon="-0.94544">
        <ele>23</ele>
        <time>2021-09-16T18:04:44+02:00</time>
      </trkpt>
      <trkpt lat="45.80985" lon="-0.94423">
        <ele>22</ele>
        <time>2021-09-16T18:04:49+02:00</time>
      </trkpt>
      <trkpt lat="45.80969" lon="-0.94313">
        <ele>25</ele>
        <time>2021-09-16T18:04:54+02:00</time>
      </trkpt>
      <trkpt lat="45.80967" lon="-0.9423">
        <ele>28</ele>
        <time>2021-09-16T18:04:59+02:00</time>
      </trkpt>
      <trkpt lat="45.80983" lon="-0.942">
        <ele>29</ele>
        <time>2021-09-16T18:05:04+02:00</time>
      </trkpt>
      <trkpt lat="45.81028" lon="-0.94183">
        <ele>30</ele>
        <time>2021-09-16T18:05:09+02:00</time>
      </trkpt>
      <trkpt lat="45.81081" lon="-0.94165">
        <ele>30</ele>
        <time>2021-09-16T18:05:14+02:00</time>
      </trkpt>
      <trkpt lat="45.81233" lon="-0.94195">
        <ele>26</ele>
        <time>2021-09-16T18:05:19+02:00</time>
      </trkpt>
      <trkpt lat="45.81293" lon="-0.94217">
        <ele>24</ele>
        <time>2021-09-16T18:05:24+02:00</time>
      </trkpt>
      <trkpt lat="45.81329" lon="-0.94273">
        <ele>22</ele>
        <time>2021-09-16T18:05:29+02:00</time>
      </trkpt>
      <trkpt lat="45.81578" lon="-0.94373">
        <ele>20</ele>
        <time>2021-09-16T18:05:34+02:00</time>
      </trkpt>
      <trkpt lat="45.81676" lon="-0.9436">
        <ele>20</ele>
        <time>2021-09-16T18:05:39+02:00</time>
      </trkpt>
      <trkpt lat="45.81681" lon="-0.94477">
        <ele>20</ele>
        <time>2021-09-16T18:05:44+02:00</time>
      </trkpt>
      <trkpt lat="45.81699" lon="-0.94501">
        <ele>20</ele>
        <time>2021-09-16T18:05:49+02:00</time>
      </trkpt>
      <trkpt lat="45.8174" lon="-0.94503">
        <ele>19</ele>
        <time>2021-09-16T18:05:54+02:00</time>
      </trkpt>
      <trkpt lat="45.81766" lon="-0.94614">
        <ele>22</ele>
        <time>2021-09-16T18:05:59+02:00</time>
      </trkpt>
      <trkpt lat="45.81838" lon="-0.946">
        <ele>22</ele>
        <time>2021-09-16T18:06:04+02:00</time>
      </trkpt>
      <trkpt lat="45.8184" lon="-0.94581">
        <ele>22</ele>
        <time>2021-09-16T18:06:09+02:00</time>
      </trkpt>
      <trkpt lat="45.81861" lon="-0.94571">
        <ele>22</ele>
        <time>2021-09-16T18:06:14+02:00</time>
      </trkpt>
      <trkpt lat="45.81891" lon="-0.94715">
        <ele>25</ele>
        <time>2021-09-16T18:06:19+02:00</time>
      </trkpt>
      <trkpt lat="45.81897" lon="-0.94844">
        <ele>25</ele>
        <time>2021-09-16T18:06:24+02:00</time>
      </trkpt>
      <trkpt lat="45.81914" lon="-0.95065">
        <ele>26</ele>
        <time>2021-09-16T18:06:29+02:00</time>
      </trkpt>
      <trkpt lat="45.82062" lon="-0.95088">
        <ele>25</ele>
        <time>2021-09-16T18:06:34+02:00</time>
      </trkpt>
      <trkpt lat="45.81912" lon="-0.95071">
        <ele>26</ele>
        <time>2021-09-16T18:06:39+02:00</time>
      </trkpt>
      <trkpt lat="45.81897" lon="-0.94852">
        <ele>25</ele>
        <time>2021-09-16T18:06:44+02:00</time>
      </trkpt>
      <trkpt lat="45.81929" lon="-0.94847">
        <ele>25</ele>
        <time>2021-09-16T18:06:49+02:00</time>
      </trkpt>
      <trkpt lat="45.81944" lon="-0.94813">
        <ele>24</ele>
        <time>2021-09-16T18:06:54+02:00</time>
      </trkpt>
      <trkpt lat="45.81949" lon="-0.94692">
        <ele>24</ele>
        <time>2021-09-16T18:06:59+02:00</time>
      </trkpt>
      <trkpt lat="45.81951" lon="-0.94644">
        <ele>24</ele>
        <time>2021-09-16T18:07:04+02:00</time>
      </trkpt>
      <trkpt lat="45.81948" lon="-0.94506">
        <ele>22</ele>
        <time>2021-09-16T18:07:09+02:00</time>
      </trkpt>
      <trkpt lat="45.82002" lon="-0.94487">
        <ele>21</ele>
        <time>2021-09-16T18:07:14+02:00</time>
      </trkpt>
      <trkpt lat="45.82041" lon="-0.94457">
        <ele>19</ele>
        <time>2021-09-16T18:07:19+02:00</time>
      </trkpt>
      <trkpt lat="45.82089" lon="-0.94457">
        <ele>18</ele>
        <time>2021-09-16T18:07:24+02:00</time>
      </trkpt>
      <trkpt lat="45.82311" lon="-0.94359">
        <ele>18</ele>
        <time>2021-09-16T18:07:29+02:00</time>
      </trkpt>
      <trkpt lat="45.82394" lon="-0.94346">
        <ele>15</ele>
        <time>2021-09-16T18:07:34+02:00</time>
      </trkpt>
      <trkpt lat="45.82496" lon="-0.9427">
        <ele>14</ele>
        <time>2021-09-16T18:07:39+02:00</time>
      </trkpt>
      <trkpt lat="45.82597" lon="-0.9423">
        <ele>15</ele>
        <time>2021-09-16T18:07:44+02:00</time>
      </trkpt>
      <trkpt lat="45.82636" lon="-0.94193">
        <ele>15</ele>
        <time>2021-09-16T18:07:49+02:00</time>
      </trkpt>
      <trkpt lat="45.8266" lon="-0.94148">
        <ele>16</ele>
        <time>2021-09-16T18:07:54+02:00</time>
      </trkpt>
      <trkpt lat="45.82701" lon="-0.94205">
        <ele>15</ele>
        <time>2021-09-16T18:07:59+02:00</time>
      </trkpt>
      <trkpt lat="45.82646" lon="-0.94293">
        <ele>15</ele>
        <time>2021-09-16T18:08:04+02:00</time>
      </trkpt>
      <trkpt lat="45.82643" lon="-0.94332">
        <ele>15</ele>
        <time>2021-09-16T18:08:09+02:00</time>
      </trkpt>
      <trkpt lat="45.82717" lon="-0.94311">
        <ele>14</ele>
        <time>2021-09-16T18:08:14+02:00</time>
      </trkpt>
      <trkpt lat="45.82705" lon="-0.94401">
        <ele>14</ele>
        <time>2021-09-16T18:08:19+02:00</time>
      </trkpt>
      <trkpt lat="45.8267" lon="-0.94517">
        <ele>15</ele>
        <time>2021-09-16T18:08:24+02:00</time>
      </trkpt>
      <trkpt lat="45.82669" lon="-0.94629">
        <ele>13</ele>
        <time>2021-09-16T18:08:29+02:00</time>
      </trkpt>
      <trkpt lat="45.82644" lon="-0.9478">
        <ele>14</ele>
        <time>2021-09-16T18:08:34+02:00</time>
      </trkpt>
      <trkpt lat="45.82598" lon="-0.94869">
        <ele>16</ele>
        <time>2021-09-16T18:08:39+02:00</time>
      </trkpt>
      <trkpt lat="45.82549" lon="-0.94925">
        <ele>18</ele>
        <time>2021-09-16T18:08:44+02:00</time>
      </trkpt>
      <trkpt lat="45.82492" lon="-0.94963">
        <ele>22</ele>
        <time>2021-09-16T18:08:49+02:00</time>
      </trkpt>
      <trkpt lat="45.82581" lon="-0.94996">
        <ele>15</ele>
        <time>2021-09-16T18:08:54+02:00</time>
      </trkpt>
      <trkpt lat="45.82537" lon="-0.95075">
        <ele>17</ele>
        <time>2021-09-16T18:08:59+02:00</time>
      </trkpt>
      <trkpt lat="45.82531" lon="-0.95114">
        <ele>17</ele>
        <time>2021-09-16T18:09:04+02:00</time>
      </trkpt>
      <trkpt lat="45.82485" lon="-0.95189">
        <ele>17</ele>
        <time>2021-09-16T18:09:09+02:00</time>
      </trkpt>
      <trkpt lat="45.82446" lon="-0.95266">
        <ele>19</ele>
        <time>2021-09-16T18:09:14+02:00</time>
      </trkpt>
      <trkpt lat="45.82385" lon="-0.95326">
        <ele>22</ele>
        <time>2021-09-16T18:09:19+02:00</time>
      </trkpt>
      <trkpt lat="45.82368" lon="-0.95415">
        <ele>23</ele>
        <time>2021-09-16T18:09:24+02:00</time>
      </trkpt>
      <trkpt lat="45.82311" lon="-0.95435">
        <ele>25</ele>
        <time>2021-09-16T18:09:29+02:00</time>
      </trkpt>
      <trkpt lat="45.82261" lon="-0.955">
        <ele>27</ele>
        <time>2021-09-16T18:09:34+02:00</time>
      </trkpt>
      <trkpt lat="45.82225" lon="-0.9553">
        <ele>27</ele>
        <time>2021-09-16T18:09:39+02:00</time>
      </trkpt>
      <trkpt lat="45.82066" lon="-0.95628">
        <ele>29</ele>
        <time>2021-09-16T18:09:44+02:00</time>
      </trkpt>
      <trkpt lat="45.81943" lon="-0.95681">
        <ele>30</ele>
        <time>2021-09-16T18:09:49+02:00</time>
      </trkpt>
      <trkpt lat="45.81835" lon="-0.95719">
        <ele>30</ele>
        <time>2021-09-16T18:09:54+02:00</time>
      </trkpt>
      <trkpt lat="45.81743" lon="-0.95738">
        <ele>28</ele>
        <time>2021-09-16T18:09:59+02:00</time>
      </trkpt>
      <trkpt lat="45.81612" lon="-0.95729">
        <ele>30</ele>
        <time>2021-09-16T18:10:04+02:00</time>
      </trkpt>
      <trkpt lat="45.8158" lon="-0.95708">
        <ele>30</ele>
        <time>2021-09-16T18:10:09+02:00</time>
      </trkpt>
      <trkpt lat="45.81542" lon="-0.95621">
        <ele>29</ele>
        <time>2021-09-16T18:10:14+02:00</time>
      </trkpt>
      <trkpt lat="45.81509" lon="-0.95584">
        <ele>29</ele>
        <time>2021-09-16T18:10:19+02:00</time>
      </trkpt>
      <trkpt lat="45.81407" lon="-0.955">
        <ele>27</ele>
        <time>2021-09-16T18:10:24+02:00</time>
      </trkpt>
      <trkpt lat="45.81325" lon="-0.95492">
        <ele>29</ele>
        <time>2021-09-16T18:10:29+02:00</time>
      </trkpt>
      <trkpt lat="45.81186" lon="-0.95524">
        <ele>27</ele>
        <time>2021-09-16T18:10:34+02:00</time>
      </trkpt>
      <trkpt lat="45.81039" lon="-0.95547">
        <ele>23</ele>
        <time>2021-09-16T18:10:39+02:00</time>
      </trkpt>
      <trkpt lat="45.80991" lon="-0.95439">
        <ele>26</ele>
        <time>2021-09-16T18:10:44+02:00</time>
      </trkpt>
      <trkpt lat="45.80791" lon="-0.95646">
        <ele>27</ele>
        <time>2021-09-16T18:10:49+02:00</time>
      </trkpt>
      <trkpt lat="45.80697" lon="-0.95694">
        <ele>28</ele>
        <time>2021-09-16T18:10:54+02:00</time>
      </trkpt>
      <trkpt lat="45.80533" lon="-0.95637">
        <ele>27</ele>
        <time>2021-09-16T18:10:59+02:00</time>
      </trkpt>
      <trkpt lat="45.80432" lon="-0.95573">
        <ele>27</ele>
        <time>2021-09-16T18:11:04+02:00</time>
      </trkpt>
      <trkpt lat="45.80393" lon="-0.9556">
        <ele>27</ele>
        <time>2021-09-16T18:11:09+02:00</time>
      </trkpt>
      <trkpt lat="45.80281" lon="-0.95488">
        <ele>29</ele>
        <time>2021-09-16T18:11:14+02:00</time>
      </trkpt>
      <trkpt lat="45.80214" lon="-0.95539">
        <ele>28</ele>
        <time>2021-09-16T18:11:19+02:00</time>
      </trkpt>
      <trkpt lat="45.80156" lon="-0.95611">
        <ele>29</ele>
        <time>2021-09-16T18:11:24+02:00</time>
      </trkpt>
      <trkpt lat="45.80073" lon="-0.9565">
        <ele>29</ele>
        <time>2021-09-16T18:11:29+02:00</time>
      </trkpt>
      <trkpt lat="45.79968" lon="-0.95646">
        <ele>28</ele>
        <time>2021-09-16T18:11:34+02:00</time>
      </trkpt>
      <trkpt lat="45.7988" lon="-0.95597">
        <ele>26</ele>
        <time>2021-09-16T18:11:39+02:00</time>
      </trkpt>
      <trkpt lat="45.7988" lon="-0.95689">
        <ele>23</ele>
        <time>2021-09-16T18:11:44+02:00</time>
      </trkpt>
      <trkpt lat="45.79836" lon="-0.95732">
        <ele>17</ele>
        <time>2021-09-16T18:11:49+02:00</time>
      </trkpt>
      <trkpt lat="45.79821" lon="-0.9577">
        <ele>14</ele>
        <time>2021-09-16T18:11:54+02:00</time>
      </trkpt>
      <trkpt lat="45.79787" lon="-0.95781">
        <ele>13</ele>
        <time>2021-09-16T18:11:59+02:00</time>
      </trkpt>
      <trkpt lat="45.7977" lon="-0.95829">
        <ele>9</ele>
        <time>2021-09-16T18:12:04+02:00</time>
      </trkpt>
      <trkpt lat="45.79742" lon="-0.95851">
        <ele>8</ele>
        <time>2021-09-16T18:12:09+02:00</time>
      </trkpt>
      <trkpt lat="45.79673" lon="-0.95917">
        <ele>5</ele>
        <time>2021-09-16T18:12:14+02:00</time>
      </trkpt>
      <trkpt lat="45.79642" lon="-0.95891">
        <ele>7</ele>
        <time>2021-09-16T18:12:19+02:00</time>
      </trkpt>
      <trkpt lat="45.79651" lon="-0.95753">
        <ele>21</ele>
        <time>2021-09-16T18:12:24+02:00</time>
      </trkpt>
      <trkpt lat="45.79627" lon="-0.95725">
        <ele>24</ele>
        <time>2021-09-16T18:12:29+02:00</time>
      </trkpt>
      <trkpt lat="45.79576" lon="-0.95726">
        <ele>28</ele>
        <time>2021-09-16T18:12:34+02:00</time>
      </trkpt>
      <trkpt lat="45.79555" lon="-0.95718">
        <ele>29</ele>
        <time>2021-09-16T18:12:39+02:00</time>
      </trkpt>
      <trkpt lat="45.79533" lon="-0.95672">
        <ele>30</ele>
        <time>2021-09-16T18:12:44+02:00</time>
      </trkpt>
      <trkpt lat="45.79488" lon="-0.95652">
        <ele>30</ele>
        <time>2021-09-16T18:12:49+02:00</time>
      </trkpt>
      <trkpt lat="45.79481" lon="-0.95601">
        <ele>31</ele>
        <time>2021-09-16T18:12:54+02:00</time>
      </trkpt>
      <trkpt lat="45.79251" lon="-0.95667">
        <ele>29</ele>
        <time>2021-09-16T18:12:59+02:00</time>
      </trkpt>
      <trkpt lat="45.79239" lon="-0.95769">
        <ele>29</ele>
        <time>2021-09-16T18:13:04+02:00</time>
      </trkpt>
      <trkpt lat="45.7923" lon="-0.95826">
        <ele>28</ele>
        <time>2021-09-16T18:13:09+02:00</time>
      </trkpt>
      <trkpt lat="45.79213" lon="-0.95866">
        <ele>25</ele>
        <time>2021-09-16T18:13:14+02:00</time>
      </trkpt>
      <trkpt lat="45.79197" lon="-0.95867">
        <ele>25</ele>
        <time>2021-09-16T18:13:19+02:00</time>
      </trkpt>
      <trkpt lat="45.79084" lon="-0.95736">
        <ele>26</ele>
        <time>2021-09-16T18:13:24+02:00</time>
      </trkpt>
      <trkpt lat="45.78869" lon="-0.95574">
        <ele>26</ele>
        <time>2021-09-16T18:13:29+02:00</time>
      </trkpt>
      <trkpt lat="45.78891" lon="-0.95765">
        <ele>13</ele>
        <time>2021-09-16T18:13:34+02:00</time>
      </trkpt>
      <trkpt lat="45.79011" lon="-0.95991">
        <ele>6</ele>
        <time>2021-09-16T18:13:39+02:00</time>
      </trkpt>
      <trkpt lat="45.79052" lon="-0.96031">
        <ele>7</ele>
        <time>2021-09-16T18:13:44+02:00</time>
      </trkpt>
      <trkpt lat="45.791" lon="-0.96046">
        <ele>8</ele>
        <time>2021-09-16T18:13:49+02:00</time>
      </trkpt>
      <trkpt lat="45.79234" lon="-0.96058">
        <ele>6</ele>
        <time>2021-09-16T18:13:54+02:00</time>
      </trkpt>
      <trkpt lat="45.79546" lon="-0.95927">
        <ele>7</ele>
        <time>2021-09-16T18:13:59+02:00</time>
      </trkpt>
      <trkpt lat="45.79598" lon="-0.95917">
        <ele>7</ele>
        <time>2021-09-16T18:14:04+02:00</time>
      </trkpt>
    </trkseg>
  </trk>
</gpx>